Terminal Aerodrome Forecast
Issued by NWS

Home | Current Version | Previous Version | Text Only | Print | Product List | Glossary On
Versions: 1 2 3 4 5 6 7 8 9 10 11 12 13
000
FTUS41 KBTV 260116 AAA
TAFMSS
TAF AMD
KMSS 260116Z 2601/2624 08004KT 6SM -SHRA BR OVC070
      TEMPO 2601/2603 3SM -RA BR BKN004
     FM260300 13004KT P6SM VCSH BKN050 OVC100 WS020/25040KT
     FM260500 21009KT P6SM VCSH BKN050 WS020/25040KT
     FM261000 23012KT P6SM SCT050
     FM261600 23014G24KT P6SM SCT050=

USA.gov is the U.S. government's official web portal to all federal, state and local government web resources and services.